createdAt,value
2018-09-03T00:01:49.789Z,19.00
2018-09-03T00:04:20.229Z,19.10
2018-09-03T00:06:50.687Z,19.63
2018-09-03T00:09:21.421Z,19.10
2018-09-03T00:11:51.816Z,19.23
2018-09-03T00:14:23.514Z,19.10
2018-09-03T00:16:54.793Z,18.23
2018-09-03T00:19:25.537Z,17.57
2018-09-03T00:21:56.380Z,19.13
2018-09-03T00:24:28.368Z,19.20
2018-09-03T00:26:58.674Z,19.43
2018-09-03T00:29:28.999Z,18.80
2018-09-03T00:32:04.426Z,18.73
2018-09-03T00:34:40.175Z,19.13
2018-09-03T00:37:15.897Z,17.70
2018-09-03T00:39:52.804Z,18.07
2018-09-03T00:42:30.348Z,19.30
2018-09-03T00:46:06.823Z,18.30
2018-09-03T00:48:37.155Z,18.77
2018-09-03T00:51:08.634Z,19.20
2018-09-03T00:53:40.423Z,19.57
2018-09-03T00:56:10.776Z,18.73
2018-09-03T00:58:42.464Z,18.97
2018-09-03T01:01:13.341Z,18.27
2018-09-03T01:03:43.689Z,19.07
2018-09-03T01:06:14.175Z,18.37
2018-09-03T01:08:45.301Z,19.40
2018-09-03T01:11:15.645Z,17.53
2018-09-03T01:13:46.492Z,18.37
2018-09-03T01:16:21.591Z,17.73
2018-09-03T01:18:56.845Z,18.20
2018-09-03T01:21:30.929Z,18.93
2018-09-03T01:24:02.978Z,18.57
2018-09-03T01:26:34.403Z,19.03
2018-09-03T01:29:05.716Z,18.77
2018-09-03T01:31:36.077Z,18.63
2018-09-03T01:34:09.188Z,18.37
2018-09-03T01:36:41.547Z,20.30
2018-09-03T01:39:11.841Z,17.97
2018-09-03T01:41:43.184Z,18.87
2018-09-03T01:44:14.066Z,18.47
2018-09-03T01:46:45.834Z,18.53
2018-09-03T01:49:17.870Z,19.40
2018-09-03T01:51:49.533Z,18.57
2018-09-03T01:54:23.744Z,19.87
2018-09-03T01:56:54.158Z,19.77
2018-09-03T01:59:25.395Z,17.53
2018-09-03T02:01:56.625Z,17.93
2018-09-03T02:04:26.931Z,19.23
2018-09-03T02:06:58.126Z,18.77
2018-09-03T02:09:28.726Z,17.77
2018-09-03T02:11:59.589Z,18.33
2018-09-03T02:14:30.287Z,19.60
2018-09-03T02:17:00.638Z,18.50
2018-09-03T02:19:31.957Z,17.77
2018-09-03T02:22:02.392Z,18.30
2018-09-03T02:24:33.863Z,18.23
2018-09-03T02:27:07.209Z,20.27
2018-09-03T02:29:39.233Z,17.67
2018-09-03T02:32:09.574Z,18.40
2018-09-03T02:34:41.601Z,19.23
2018-09-03T02:37:13.568Z,19.10
2018-09-03T02:39:44.062Z,18.13
2018-09-03T02:42:15.266Z,20.03
2018-09-03T02:44:45.802Z,17.30
2018-09-03T02:47:17.166Z,19.53
2018-09-03T02:49:48.905Z,19.57
2018-09-03T02:52:21.575Z,19.53
2018-09-03T02:54:51.969Z,19.00
2018-09-03T02:57:23.846Z,19.13
2018-09-03T02:59:54.863Z,18.53
2018-09-03T03:02:25.487Z,18.70
2018-09-03T03:04:55.863Z,17.90
2018-09-03T03:07:26.201Z,18.03
2018-09-03T03:09:56.509Z,18.67
2018-09-03T03:12:26.892Z,17.27
2018-09-03T03:14:58.288Z,18.60
2018-09-03T03:17:29.103Z,16.70
2018-09-03T03:20:00.186Z,18.50
2018-09-03T03:22:35.705Z,18.10
2018-09-03T03:25:06.383Z,18.57
2018-09-03T03:27:36.862Z,18.10
2018-09-03T03:30:09.195Z,17.43
2018-09-03T03:32:40.377Z,17.17
2018-09-03T03:35:12.359Z,18.03
2018-09-03T03:37:49.662Z,18.20
2018-09-03T03:40:21.614Z,17.77
2018-09-03T03:42:52.834Z,17.83
2018-09-03T03:45:26.073Z,17.27
2018-09-03T03:47:57.093Z,19.27
2018-09-03T03:50:28.653Z,18.33
2018-09-03T03:52:59.837Z,18.93
2018-09-03T03:55:30.415Z,18.10
2018-09-03T03:58:00.942Z,17.23
2018-09-03T04:00:32.119Z,18.70
2018-09-03T04:03:04.561Z,18.77
2018-09-03T04:05:34.876Z,17.53
2018-09-03T04:08:05.984Z,18.07
2018-09-03T04:10:39.505Z,18.10
2018-09-03T04:13:09.846Z,17.90
2018-09-03T04:15:41.543Z,18.83
2018-09-03T04:18:12.230Z,18.03
2018-09-03T04:20:43.924Z,19.23
2018-09-03T04:23:14.477Z,18.73
2018-09-03T04:25:45.306Z,19.17
2018-09-03T04:28:17.353Z,18.63
2018-09-03T04:30:48.853Z,19.07
2018-09-03T04:33:19.761Z,20.20
2018-09-03T04:35:52.062Z,18.07
2018-09-03T04:38:22.470Z,18.37
2018-09-03T04:40:53.568Z,25.30
2018-09-03T04:43:26.459Z,21.77
2018-09-03T04:45:56.829Z,41.60
2018-09-03T04:48:27.483Z,23.80
2018-09-03T04:50:57.862Z,24.60
2018-09-03T04:53:28.447Z,30.03
2018-09-03T04:55:58.886Z,19.83
2018-09-03T04:58:30.958Z,18.60
2018-09-03T05:01:01.868Z,19.10
2018-09-03T05:03:32.328Z,31.17
2018-09-03T05:06:06.156Z,34.47
2018-09-03T05:08:36.836Z,36.67
2018-09-03T05:11:07.427Z,24.87
2018-09-03T05:13:39.469Z,19.10
2018-09-03T05:16:10.141Z,36.07
2018-09-03T05:18:40.805Z,46.23
2018-09-03T05:21:12.127Z,28.53
2018-09-03T05:23:44.423Z,20.30
2018-09-03T05:26:15.719Z,20.00
2018-09-03T05:28:48.431Z,20.10
2018-09-03T05:31:19.806Z,21.00
2018-09-03T05:33:50.907Z,21.20
2018-09-03T05:36:21.191Z,19.23
2018-09-03T05:38:51.541Z,20.77
2018-09-03T05:41:24.426Z,18.67
2018-09-03T05:43:55.510Z,19.83
2018-09-03T05:46:27.538Z,19.10
2018-09-03T05:49:04.867Z,20.10
2018-09-03T05:51:39.489Z,51.90
2018-09-03T05:54:10.451Z,49.23
2018-09-03T05:56:42.345Z,24.17
2018-09-03T05:59:13.557Z,20.50
2018-09-03T06:01:45.091Z,19.20
2018-09-03T06:04:17.287Z,19.73
2018-09-03T06:06:54.085Z,20.17
2018-09-03T06:09:25.919Z,21.73
2018-09-03T06:11:57.601Z,20.73
2018-09-03T06:14:29.975Z,21.73
2018-09-03T06:17:00.580Z,19.63
2018-09-03T06:19:32.313Z,21.07
2018-09-03T06:22:03.004Z,19.57
2018-09-03T06:24:35.918Z,20.87
2018-09-03T06:27:06.977Z,21.13
2018-09-03T06:29:38.255Z,20.37
2018-09-03T06:32:08.877Z,18.10
2018-09-03T06:34:40.458Z,17.90
2018-09-03T06:37:12.641Z,18.83
2018-09-03T06:39:45.809Z,18.00
2018-09-03T06:42:17.105Z,17.10
2018-09-03T06:44:49.085Z,17.07
2018-09-03T06:47:19.972Z,16.40
2018-09-03T06:49:56.824Z,16.40
2018-09-03T06:52:29.432Z,15.20
2018-09-03T06:54:59.895Z,14.97
2018-09-03T06:57:30.425Z,17.57
2018-09-03T07:00:01.811Z,17.37
2018-09-03T07:02:34.541Z,16.47
2018-09-03T07:05:04.988Z,16.33
2018-09-03T07:07:36.740Z,16.40
2018-09-03T07:10:09.357Z,16.83
2018-09-03T07:12:43.117Z,17.40
2018-09-03T07:15:17.921Z,16.30
2018-09-03T07:17:49.858Z,17.30
2018-09-03T07:20:20.353Z,17.57
2018-09-03T07:22:54.972Z,16.93
2018-09-03T07:25:27.185Z,17.43
2018-09-03T07:27:58.514Z,16.50
2018-09-03T07:30:30.021Z,16.00
2018-09-03T07:33:00.431Z,16.63
2018-09-03T07:35:30.862Z,17.90
2018-09-03T07:38:01.298Z,18.80
2018-09-03T07:40:31.873Z,17.87
2018-09-03T07:43:04.765Z,16.67
2018-09-03T07:45:40.221Z,16.60
2018-09-03T07:48:13.425Z,15.47
2018-09-03T07:50:45.261Z,16.70
2018-09-03T07:53:40.011Z,16.33
2018-09-03T07:56:10.510Z,16.33
2018-09-03T07:58:40.885Z,16.63
2018-09-03T08:01:16.237Z,15.77
2018-09-03T08:03:46.534Z,16.00
2018-09-03T08:06:17.574Z,15.20
2018-09-03T08:08:49.565Z,14.37
2018-09-03T08:11:20.085Z,15.13
2018-09-03T08:13:50.397Z,14.83
2018-09-03T08:16:20.920Z,15.20
2018-09-03T08:18:55.234Z,15.00
2018-09-03T08:21:25.674Z,14.50
2018-09-03T08:23:56.529Z,15.00
2018-09-03T08:26:27.216Z,15.60
2018-09-03T08:29:00.333Z,16.53
2018-09-03T08:31:31.530Z,15.43
2018-09-03T08:34:02.573Z,16.90
2018-09-03T08:36:34.015Z,15.17
2018-09-03T08:39:05.907Z,16.43
2018-09-03T08:41:36.805Z,16.30
2018-09-03T08:44:08.775Z,15.93
2018-09-03T08:46:39.106Z,17.03
2018-09-03T08:49:09.488Z,18.67
2018-09-03T08:51:39.804Z,18.20
2018-09-03T08:54:10.222Z,17.97
2018-09-03T08:56:40.952Z,17.67
2018-09-03T08:59:11.980Z,16.43
2018-09-03T09:01:42.369Z,16.20
2018-09-03T09:04:12.928Z,16.80
2018-09-03T09:06:43.306Z,17.33
2018-09-03T09:09:13.828Z,17.13
2018-09-03T09:11:44.344Z,16.80
2018-09-03T09:14:14.695Z,17.37
2018-09-03T09:16:45.154Z,16.60
2018-09-03T09:19:15.533Z,15.47
2018-09-03T09:21:45.984Z,17.00
2018-09-03T09:24:17.152Z,17.10
2018-09-03T09:26:47.445Z,15.80
2018-09-03T09:29:17.789Z,16.57
2018-09-03T09:31:48.730Z,17.03
2018-09-03T09:34:19.096Z,17.30
2018-09-03T09:36:49.428Z,17.20
2018-09-03T09:39:19.795Z,16.00
2018-09-03T09:41:50.176Z,16.93
2018-09-03T09:44:20.610Z,16.93
2018-09-03T09:46:51.029Z,16.90
2018-09-03T09:49:21.563Z,16.00
2018-09-03T09:51:52.031Z,18.27
2018-09-03T09:54:22.436Z,17.87
2018-09-03T09:56:53.921Z,16.60
2018-09-03T09:59:24.334Z,17.10
2018-09-03T10:01:54.701Z,17.00
2018-09-03T10:04:25.104Z,16.87
2018-09-03T10:06:55.447Z,17.70
2018-09-03T10:09:25.727Z,17.50
2018-09-03T10:11:56.121Z,16.23
2018-09-03T10:14:26.457Z,18.00
2018-09-03T10:16:57.468Z,17.90
2018-09-03T10:19:28.381Z,17.53
2018-09-03T10:21:58.833Z,17.60
2018-09-03T10:24:29.177Z,16.33
2018-09-03T10:26:59.502Z,16.90
2018-09-03T10:29:29.930Z,17.00
2018-09-03T10:32:00.355Z,17.43
2018-09-03T10:34:30.744Z,17.93
2018-09-03T10:37:01.202Z,17.87
2018-09-03T10:39:59.158Z,16.90
2018-09-03T10:42:29.576Z,17.33
2018-09-03T10:45:00.044Z,16.30
2018-09-03T10:47:30.442Z,17.10
2018-09-03T10:50:00.694Z,17.40
2018-09-03T10:52:31.031Z,16.00
2018-09-03T10:55:01.396Z,17.30
2018-09-03T10:57:31.740Z,16.50
2018-09-03T11:00:11.058Z,17.70
2018-09-03T11:02:41.407Z,17.27
2018-09-03T11:05:11.876Z,17.43
2018-09-03T11:07:42.128Z,17.70
2018-09-03T11:10:12.445Z,18.37
2018-09-03T11:12:43.794Z,18.03
2018-09-03T11:15:14.142Z,17.53
2018-09-03T11:17:45.127Z,18.03
2018-09-03T11:20:20.557Z,17.13
2018-09-03T11:22:51.007Z,17.07
2018-09-03T11:25:21.902Z,16.00
2018-09-03T11:27:54.028Z,16.30
2018-09-03T11:30:25.128Z,15.13
2018-09-03T11:32:58.589Z,15.03
2018-09-03T11:35:30.677Z,15.80
2018-09-03T11:38:01.948Z,16.30
2018-09-03T11:40:33.160Z,15.70
2018-09-03T11:43:03.568Z,16.97
2018-09-03T11:45:33.978Z,15.87
2018-09-03T11:48:05.008Z,16.57
2018-09-03T11:50:35.361Z,16.00
2018-09-03T11:53:06.457Z,16.20
2018-09-03T11:55:36.776Z,16.80
2018-09-03T11:58:07.265Z,15.67
2018-09-03T12:00:37.711Z,17.00
2018-09-03T12:03:09.510Z,16.17
2018-09-03T12:05:39.861Z,16.00
2018-09-03T12:08:10.796Z,15.10
2018-09-03T12:10:44.550Z,14.70
2018-09-03T12:13:15.299Z,13.70
2018-09-03T12:15:55.112Z,14.80
2018-09-03T12:18:25.624Z,15.43
2018-09-03T12:20:57.980Z,15.70
2018-09-03T12:23:28.305Z,14.43
2018-09-03T12:25:58.650Z,15.40
2018-09-03T12:28:29.079Z,15.37
2018-09-03T12:30:59.807Z,15.63
2018-09-03T12:33:30.732Z,14.40
2018-09-03T12:36:01.085Z,15.10
2018-09-03T12:38:32.545Z,14.40
2018-09-03T12:41:03.795Z,14.50
2018-09-03T12:43:35.477Z,14.97
2018-09-03T12:46:07.106Z,15.07
2018-09-03T12:48:37.460Z,15.93
2018-09-03T12:51:08.015Z,14.83
2018-09-03T12:53:38.352Z,15.00
2018-09-03T12:56:08.845Z,15.13
2018-09-03T12:58:39.302Z,15.43
2018-09-03T13:01:09.597Z,14.97
2018-09-03T13:03:39.917Z,16.93
2018-09-03T13:06:10.402Z,16.03
2018-09-03T13:08:40.781Z,15.40
2018-09-03T13:11:11.490Z,16.30
2018-09-03T13:13:41.815Z,15.30
2018-09-03T13:16:12.372Z,15.30
2018-09-03T13:18:42.800Z,16.07
2018-09-03T13:21:13.177Z,16.77
2018-09-03T13:23:44.789Z,16.00
2018-09-03T13:26:17.485Z,16.73
2018-09-03T13:28:49.556Z,16.20
2018-09-03T13:31:21.596Z,15.97
2018-09-03T13:33:55.911Z,15.07
2018-09-03T13:36:26.255Z,15.37
2018-09-03T13:38:59.019Z,15.27
2018-09-03T13:41:29.472Z,14.40
2018-09-03T13:44:00.900Z,16.23
2018-09-03T13:46:31.417Z,16.30
2018-09-03T13:49:01.810Z,15.80
2018-09-03T13:51:32.262Z,15.43
2018-09-03T13:54:02.989Z,15.00
2018-09-03T13:56:33.494Z,13.43
2018-09-03T13:59:04.164Z,14.77
2018-09-03T14:01:34.522Z,15.40
2018-09-03T14:04:06.082Z,15.00
2018-09-03T14:06:37.217Z,16.57
2018-09-03T14:09:09.458Z,15.37
2018-09-03T14:11:41.898Z,15.00
2018-09-03T14:14:12.684Z,15.53
2018-09-03T14:16:43.245Z,14.87
2018-09-03T14:19:13.851Z,14.93
2018-09-03T14:21:44.249Z,14.47
2018-09-03T14:24:14.863Z,14.70
2018-09-03T14:26:45.166Z,16.20
2018-09-03T14:29:15.907Z,13.57
2018-09-03T14:31:53.784Z,14.53
2018-09-03T14:34:24.537Z,14.80
2018-09-03T14:36:54.972Z,12.70
2018-09-03T14:39:25.601Z,14.20
2018-09-03T14:41:55.892Z,13.83
2018-09-03T14:44:26.654Z,13.90
2018-09-03T14:46:57.141Z,13.37
2018-09-03T14:49:27.815Z,12.97
2018-09-03T14:51:58.153Z,14.30
2018-09-03T14:54:28.762Z,15.57
2018-09-03T14:56:59.953Z,13.53
2018-09-03T14:59:30.521Z,13.53
2018-09-03T15:02:00.859Z,14.00
2018-09-03T15:04:31.559Z,14.00
2018-09-03T15:07:01.892Z,14.10
2018-09-03T15:09:32.435Z,13.40
2018-09-03T15:12:02.761Z,14.50
2018-09-03T15:14:33.452Z,13.20
2018-09-03T15:17:04.739Z,14.90
2018-09-03T15:19:36.121Z,14.70
2018-09-03T15:22:06.461Z,13.90
2018-09-03T15:24:36.805Z,14.10
2018-09-03T15:27:07.460Z,14.57
2018-09-03T15:29:37.801Z,17.13
2018-09-03T15:32:08.736Z,13.30
2018-09-03T15:34:39.728Z,14.30
2018-09-03T15:37:10.882Z,12.97
2018-09-03T15:39:41.257Z,13.57
2018-09-03T15:42:12.001Z,13.50
2018-09-03T15:44:44.597Z,13.70
2018-09-03T15:55:19.800Z,12.97
2018-09-03T15:57:51.659Z,12.80
2018-09-03T16:00:30.210Z,13.50
2018-09-03T16:03:00.571Z,13.87
2018-09-03T16:05:32.125Z,12.73
2018-09-03T16:08:02.992Z,13.90
2018-09-03T16:10:36.381Z,19.37
2018-09-03T16:13:10.877Z,15.47
2018-09-03T16:15:41.233Z,14.10
2018-09-03T16:18:18.478Z,13.30
2018-09-03T16:20:50.998Z,14.80
2018-09-03T16:23:30.822Z,13.70
2018-09-03T16:26:03.526Z,14.07
2018-09-03T16:28:34.454Z,14.93
2018-09-03T16:31:05.183Z,13.37
2018-09-03T16:33:36.170Z,14.10
2018-09-03T16:36:06.944Z,13.37
2018-09-03T16:38:39.615Z,14.00
2018-09-03T16:41:10.773Z,15.60
2018-09-03T16:43:41.137Z,25.70
2018-09-03T16:46:11.787Z,14.57
2018-09-03T16:48:42.419Z,14.93
2018-09-03T16:51:12.987Z,13.93
2018-09-03T16:53:52.221Z,36.43
2018-09-03T16:56:27.898Z,19.47
2018-09-03T16:58:59.224Z,16.70
2018-09-03T17:01:31.668Z,15.80
2018-09-03T17:04:01.956Z,14.30
2018-09-03T17:06:32.345Z,15.27
2018-09-03T17:09:02.965Z,34.27
2018-09-03T17:11:33.333Z,18.37
2018-09-03T17:14:04.047Z,14.67
2018-09-03T17:16:35.720Z,14.37
2018-09-03T17:19:07.461Z,14.67
2018-09-03T17:21:51.178Z,14.50
2018-09-03T17:24:28.391Z,14.20
2018-09-03T17:27:01.358Z,15.40
2018-09-03T17:29:39.573Z,14.63
2018-09-03T17:32:12.185Z,16.73
2018-09-03T17:34:43.593Z,14.47
2018-09-03T17:37:17.699Z,16.30
2018-09-03T17:39:49.888Z,38.23
2018-09-03T17:42:22.062Z,17.30
2018-09-03T17:44:58.940Z,18.50
2018-09-03T17:47:29.998Z,16.83
2018-09-03T17:50:02.176Z,17.00
2018-09-03T17:52:34.803Z,17.30
2018-09-03T17:55:10.030Z,17.97
2018-09-03T17:57:42.543Z,17.53
2018-09-03T18:00:14.129Z,18.03
2018-09-03T18:02:44.617Z,20.47
2018-09-03T18:05:16.836Z,21.43
2018-09-03T18:07:49.813Z,17.23
2018-09-03T18:10:26.669Z,18.57
2018-09-03T18:13:06.819Z,15.10
2018-09-03T18:15:39.719Z,13.33
2018-09-03T18:22:25.199Z,17.10
2018-09-03T18:25:25.998Z,22.17
2018-09-03T19:13:05.485Z,13.43
2018-09-03T19:29:54.138Z,12.40
2018-09-03T19:32:34.575Z,12.27
2018-09-03T19:35:13.959Z,12.83
2018-09-03T19:40:41.157Z,42.87
2018-09-03T19:43:18.685Z,24.60
2018-09-03T19:45:56.772Z,20.90
2018-09-03T19:49:20.372Z,12.40
2018-09-03T19:52:01.264Z,12.70
2018-09-03T19:54:42.967Z,11.30
2018-09-03T19:57:48.441Z,11.90
2018-09-03T20:00:29.207Z,11.27
2018-09-03T20:03:02.629Z,11.00
2018-09-03T20:05:38.417Z,11.10
2018-09-03T20:08:10.405Z,11.80
2018-09-03T20:11:17.926Z,11.60
2018-09-03T20:13:54.569Z,12.53
2018-09-03T20:16:31.868Z,11.30
2018-09-03T20:25:25.629Z,11.07
2018-09-03T20:28:04.729Z,9.63
2018-09-03T20:30:44.917Z,11.20
2018-09-03T20:33:17.170Z,9.80
2018-09-03T20:35:51.009Z,10.90
2018-09-03T20:42:41.376Z,10.50
2018-09-03T20:45:15.982Z,11.70
2018-09-03T20:48:01.089Z,11.17
2018-09-03T20:50:50.049Z,10.43
2018-09-03T20:53:31.189Z,11.07
2018-09-03T20:56:04.942Z,10.53
2018-09-03T20:58:37.194Z,10.40
2018-09-03T21:05:35.661Z,9.70
2018-09-03T21:08:13.966Z,10.30
2018-09-03T21:10:49.083Z,9.23
2018-09-03T21:13:23.133Z,12.10
2018-09-03T21:15:59.465Z,10.27
2018-09-03T21:18:33.996Z,10.70
2018-09-03T21:21:09.735Z,10.10
2018-09-03T21:23:43.150Z,10.20
2018-09-03T21:26:15.949Z,10.37
2018-09-03T21:28:50.457Z,9.90
2018-09-03T21:31:22.910Z,11.00
2018-09-03T21:33:54.589Z,11.03
2018-09-03T21:36:30.136Z,11.03
2018-09-03T21:39:03.586Z,11.43
2018-09-03T21:41:37.118Z,11.10
2018-09-03T21:44:13.414Z,11.10
2018-09-03T21:46:46.394Z,12.03
2018-09-03T21:49:57.620Z,12.10
2018-09-03T21:52:51.604Z,10.60
2018-09-03T21:55:23.881Z,10.20
2018-09-03T21:57:55.897Z,10.63
2018-09-03T22:00:28.853Z,11.17
2018-09-03T22:03:02.905Z,16.87
2018-09-03T22:05:44.794Z,11.87
2018-09-03T22:08:17.652Z,10.93
2018-09-03T22:10:49.634Z,10.47
2018-09-03T22:13:20.981Z,10.00
2018-09-03T22:15:55.475Z,10.20
2018-09-03T22:18:27.477Z,9.80
2018-09-03T22:21:01.693Z,10.77
2018-09-03T22:23:38.942Z,10.97
2018-09-03T22:26:12.408Z,9.03
2018-09-03T22:28:46.073Z,10.20
2018-09-03T22:31:18.545Z,10.27
2018-09-03T22:33:50.420Z,10.30
2018-09-03T22:36:27.802Z,10.07
2018-09-03T22:39:01.666Z,10.07
2018-09-03T22:41:35.378Z,10.03
2018-09-03T22:44:13.626Z,9.23
2018-09-03T22:46:44.886Z,10.03
2018-09-03T22:49:20.923Z,9.10
2018-09-03T22:51:55.099Z,11.57
2018-09-03T22:54:28.006Z,10.20
2018-09-03T22:57:00.361Z,9.70
2018-09-03T22:59:32.157Z,9.53
2018-09-03T23:02:05.185Z,8.60
2018-09-03T23:04:35.857Z,9.30
2018-09-03T23:07:09.241Z,11.00
2018-09-03T23:09:42.546Z,10.70
2018-09-03T23:12:15.537Z,9.43
2018-09-03T23:14:53.029Z,9.00
2018-09-03T23:17:25.025Z,9.53
2018-09-03T23:19:58.841Z,8.67
2018-09-03T23:22:31.089Z,9.30
2018-09-03T23:25:03.663Z,8.83
2018-09-03T23:27:38.257Z,8.53
2018-09-03T23:30:10.729Z,8.77
2018-09-03T23:32:43.539Z,8.90
2018-09-03T23:35:16.452Z,8.43
2018-09-03T23:37:53.320Z,8.00
2018-09-03T23:40:29.257Z,8.60
2018-09-03T23:43:02.190Z,8.93
2018-09-03T23:45:34.170Z,7.40
2018-09-03T23:48:05.048Z,8.17
2018-09-03T23:50:37.244Z,9.10
2018-09-03T23:53:09.837Z,8.20
2018-09-03T23:55:42.735Z,8.37
2018-09-03T23:58:16.199Z,8.27
